Queen Of Burnaby — VCVV — position and weather

sailwx.info

Track history (hours):
 
Tides and Currents Weather Stations Pressure Air Temp Water Temp Dewpoint Dewpoint Depression Visibility Wind Speed Wind Dir Waves Ship Positions

Queen Of Burnaby

Last reported at 2015-May-03 07:29 UTC. Time now 2015-May-03 11:50 UTC.
Position N 49°44' W 124°55'.

Length 130 m; draft 4 m.

MMSI: 316001246.

Date/timePositionNaut miles runAvg speedWind from/ knotsBaromVisibWave heightAir tempDewpointWater temp
2015-May-03 07:29N 49°44' W 124°55'0 0.0
2015-May-03 05:05N 49°44' W 124°55'610.6
2015-May-03 04:33N 49°46' W 124°47'11 8.9
2015-May-03 03:21N 49°50' W 124°32'1012.7
2015-May-03 02:31N 49°47' W 124°47'1 0.1
2015-May-02 19:32N 49°47' W 124°46'6 4.2
2015-May-02 18:05N 49°49' W 124°37'713.7
2015-May-02 17:33N 49°46' W 124°47'6 5.7
2015-May-02 16:33N 49°44' W 124°55'1312.8
2015-May-02 15:33N 49°49' W 124°37'1 1.0
2015-May-02 14:33N 49°48' W 124°38'1211.6
2015-May-02 13:33N 49°44' W 124°55'16 1.6
2015-May-02 03:32N 49°50' W 124°32'1313.2
2015-May-02 02:33N 49°46' W 124°51'8 2.5
2015-May-01 23:13N 49°49' W 124°38'913.5
2015-May-01 22:33N 49°46' W 124°51'8 2.4
2015-May-01 19:20N 49°48' W 124°40'4 3.2
2015-May-01 18:08N 49°50' W 124°34'813.9
2015-May-01 17:33N 49°47' W 124°46'6 2.1
2015-May-01 14:28N 49°49' W 124°37'1 0.1
2015-May-01 03:11N 49°49' W 124°38'914.4
2015-May-01 02:33N 49°46' W 124°51'9 2.6
2015-Apr-30 23:16N 49°49' W 124°38'7 1.3
2015-Apr-30 17:27N 49°46' W 124°49'8 2.6
2015-Apr-30 14:30N 49°49' W 124°38'7 0.6
2015-Apr-30 02:28N 49°47' W 124°48'1 0.1
2015-Apr-29 17:24N 49°46' W 124°49'7 2.5
2015-Apr-29 14:25N 49°49' W 124°38'0 0.0
2015-Apr-28 23:16N 49°48' W 124°39'6 0.9
2015-Apr-28 16:05N 49°46' W 124°48'8 4.8
2015-Apr-28 14:29N 49°49' W 124°37'0 0.0
2015-Apr-28 03:14N 49°49' W 124°37'1014.8
2015-Apr-28 02:33N 49°45' W 124°52'11 3.5
2015-Apr-27 23:26N 49°50' W 124°37'3 0.6
2015-Apr-27 18:22N 49°50' W 124°32'1012.2
2015-Apr-27 17:32N 49°47' W 124°47'1 1.0
2015-Apr-27 16:09N 49°46' W 124°49'9 5.3
2015-Apr-27 14:31N 49°49' W 124°37'0 0.0
2015-Apr-27 03:17N 49°50' W 124°37'9 4.3
2015-Apr-27 01:17N 49°46' W 124°49'9 1.3
2015-Apr-26 18:12N 49°50' W 124°36'2 0.6
2015-Apr-26 14:25N 49°48' W 124°39'4 0.4
2015-Apr-26 03:10N 49°50' W 124°33'914.7
2015-Apr-26 02:33N 49°47' W 124°47'6 0.7
2015-Apr-25 18:04N 49°49' W 124°38'712.7
2015-Apr-25 17:32N 49°46' W 124°48'8 2.5
2015-Apr-25 14:31N 49°49' W 124°37'3 0.2
2015-Apr-25 03:26N 49°50' W 124°33'1314.7
2015-Apr-25 02:31N 49°45' W 124°52'13 4.4
2015-Apr-24 23:30N 49°50' W 124°33'1413.8
2015-Apr-24 22:31N 49°45' W 124°53'2 0.5
2015-Apr-24 17:30N 49°46' W 124°49'9 2.9
2015-Apr-24 14:29N 49°49' W 124°37'3 0.2
2015-Apr-23 23:32N 49°50' W 124°33'11 3.4
2015-Apr-23 20:11N 49°46' W 124°50'710.3
2015-Apr-23 19:33N 49°47' W 124°40'5 4.8
2015-Apr-23 18:31N 49°50' W 124°33'1212.4
2015-Apr-23 17:31N 49°45' W 124°51'13 5.9
2015-Apr-23 15:15N 49°50' W 124°32'4 5.6
2015-Apr-23 14:33N 49°49' W 124°38'  
Track history (hours):
 
Tides and Currents Weather Stations Pressure Air Temp Water Temp Dewpoint Dewpoint Depression Visibility Wind Speed Wind Dir Waves Ship Positions

Queen Of Burnaby

Last reported at 2015-May-03 07:29 UTC. Time now 2015-May-03 11:50 UTC.
Position N 49°44' W 124°55'.

Length 130 m; draft 4 m.

MMSI: 316001246.

Date/timePositionNaut miles runAvg speedWind from/ knotsBaromVisibWave heightAir tempDewpointWater temp
2015-May-03 07:29N 49°44' W 124°55'0 0.0
2015-May-03 05:05N 49°44' W 124°55'610.6
2015-May-03 04:33N 49°46' W 124°47'11 8.9
2015-May-03 03:21N 49°50' W 124°32'1012.7
2015-May-03 02:31N 49°47' W 124°47'1 0.1
2015-May-02 19:32N 49°47' W 124°46'6 4.2
2015-May-02 18:05N 49°49' W 124°37'713.7
2015-May-02 17:33N 49°46' W 124°47'6 5.7
2015-May-02 16:33N 49°44' W 124°55'1312.8
2015-May-02 15:33N 49°49' W 124°37'1 1.0
2015-May-02 14:33N 49°48' W 124°38'1211.6
2015-May-02 13:33N 49°44' W 124°55'16 1.6
2015-May-02 03:32N 49°50' W 124°32'1313.2
2015-May-02 02:33N 49°46' W 124°51'8 2.5
2015-May-01 23:13N 49°49' W 124°38'913.5
2015-May-01 22:33N 49°46' W 124°51'8 2.4
2015-May-01 19:20N 49°48' W 124°40'4 3.2
2015-May-01 18:08N 49°50' W 124°34'813.9
2015-May-01 17:33N 49°47' W 124°46'6 2.1
2015-May-01 14:28N 49°49' W 124°37'1 0.1
2015-May-01 03:11N 49°49' W 124°38'914.4
2015-May-01 02:33N 49°46' W 124°51'9 2.6
2015-Apr-30 23:16N 49°49' W 124°38'7 1.3
2015-Apr-30 17:27N 49°46' W 124°49'8 2.6
2015-Apr-30 14:30N 49°49' W 124°38'7 0.6
2015-Apr-30 02:28N 49°47' W 124°48'1 0.1
2015-Apr-29 17:24N 49°46' W 124°49'7 2.5
2015-Apr-29 14:25N 49°49' W 124°38'0 0.0
2015-Apr-28 23:16N 49°48' W 124°39'6 0.9
2015-Apr-28 16:05N 49°46' W 124°48'8 4.8
2015-Apr-28 14:29N 49°49' W 124°37'0 0.0
2015-Apr-28 03:14N 49°49' W 124°37'1014.8
2015-Apr-28 02:33N 49°45' W 124°52'11 3.5
2015-Apr-27 23:26N 49°50' W 124°37'3 0.6
2015-Apr-27 18:22N 49°50' W 124°32'1012.2
2015-Apr-27 17:32N 49°47' W 124°47'1 1.0
2015-Apr-27 16:09N 49°46' W 124°49'9 5.3
2015-Apr-27 14:31N 49°49' W 124°37'0 0.0
2015-Apr-27 03:17N 49°50' W 124°37'9 4.3
2015-Apr-27 01:17N 49°46' W 124°49'9 1.3
2015-Apr-26 18:12N 49°50' W 124°36'2 0.6
2015-Apr-26 14:25N 49°48' W 124°39'4 0.4
2015-Apr-26 03:10N 49°50' W 124°33'914.7
2015-Apr-26 02:33N 49°47' W 124°47'6 0.7
2015-Apr-25 18:04N 49°49' W 124°38'712.7
2015-Apr-25 17:32N 49°46' W 124°48'8 2.5
2015-Apr-25 14:31N 49°49' W 124°37'3 0.2
2015-Apr-25 03:26N 49°50' W 124°33'1314.7
2015-Apr-25 02:31N 49°45' W 124°52'13 4.4
2015-Apr-24 23:30N 49°50' W 124°33'1413.8
2015-Apr-24 22:31N 49°45' W 124°53'2 0.5
2015-Apr-24 17:30N 49°46' W 124°49'9 2.9
2015-Apr-24 14:29N 49°49' W 124°37'3 0.2
2015-Apr-23 23:32N 49°50' W 124°33'11 3.4
2015-Apr-23 20:11N 49°46' W 124°50'710.3
2015-Apr-23 19:33N 49°47' W 124°40'5 4.8
2015-Apr-23 18:31N 49°50' W 124°33'1212.4
2015-Apr-23 17:31N 49°45' W 124°51'13 5.9
2015-Apr-23 15:15N 49°50' W 124°32'4 5.6
2015-Apr-23 14:33N 49°49' W 124°38'  

Dump ship's entire track history